Time;durP1;ratioP1;P1;durP2;ratioP2;P2;SDS_P1;SDS_P2;PMS_P1;PMS_P2;Temp;Humidity;BMP_temperature;BMP_pressure;BME280_temperature;BME280_humidity;BME280_pressure;Samples;Min_cycle;Max_cycle;Signal;HPM_P1;HPM_P2
2023/10/12 00:02:04;;;;;;;4.72;1.30;;;;;;;13.65;100.00;100827.63;6071349;23;20040;-77
2023/10/12 00:04:53;;;;;;;5.03;1.42;;;;;;;13.65;100.00;100833.03;6145990;23;20013;-78
2023/10/12 00:07:54;;;;;;;4.75;1.83;;;;;;;13.55;100.00;100830.47;6069400;23;20100;-80
2023/10/12 00:12:46;;;;;;;6.15;1.70;;;;;;;13.43;100.00;100856.97;6095640;23;20108;-81
2023/10/12 00:15:38;;;;;;;5.20;2.10;;;;;;;13.36;100.00;100851.91;6071172;23;20397;-81
2023/10/12 00:18:08;;;;;;;5.38;1.77;;;;;;;13.34;100.00;100837.94;6119034;23;20014;-82
2023/10/12 00:20:35;;;;;;;4.35;2.10;;;;;;;13.35;100.00;100829.59;6067810;23;20162;-80
2023/10/12 00:23:09;;;;;;;5.35;1.70;;;;;;;13.29;100.00;100835.31;6119444;23;20522;-80
2023/10/12 00:25:46;;;;;;;8.27;2.15;;;;;;;13.31;100.00;100839.31;6095636;23;20652;-82
2023/10/12 00:28:18;;;;;;;10.52;2.33;;;;;;;13.27;100.00;100843.66;6071059;23;20029;-79
2023/10/12 00:30:47;;;;;;;10.70;2.20;;;;;;;13.24;100.00;100841.53;6118849;23;20044;-80
2023/10/12 00:33:13;;;;;;;8.10;1.70;;;;;;;13.13;100.00;100832.72;6072738;23;20083;-79
2023/10/12 00:35:39;;;;;;;10.32;1.90;;;;;;;13.11;100.00;100828.75;6095289;23;20011;-81
2023/10/12 00:38:18;;;;;;;;;;;;;;;13.12;100.00;100825.75;6094720;23;20017;-80
2023/10/12 00:40:51;;;;;;;8.25;1.50;;;;;;;13.12;100.00;100835.72;6118912;23;19987;-81
2023/10/12 00:43:16;;;;;;;8.98;1.90;;;;;;;13.06;100.00;100823.41;6118754;23;20017;-78
2023/10/12 00:45:42;;;;;;;8.00;1.40;;;;;;;13.05;100.00;100833.34;6119100;23;20036;-80
2023/10/12 00:48:16;;;;;;;10.40;1.65;;;;;;;12.98;100.00;100830.19;6118374;23;20009;-79
2023/10/12 00:50:44;;;;;;;9.95;1.70;;;;;;;13.02;100.00;100830.44;6070638;23;20025;-80
2023/10/12 00:53:15;;;;;;;14.18;1.95;;;;;;;12.99;100.00;100833.69;6071415;23;20351;-78
2023/10/12 00:55:45;;;;;;;10.80;1.80;;;;;;;12.98;100.00;100850.91;6118238;23;20013;-79
2023/10/12 00:58:14;;;;;;;8.40;1.40;;;;;;;12.99;100.00;100839.06;6070889;23;20040;-80
2023/10/12 01:00:46;;;;;;;11.20;1.98;;;;;;;12.92;100.00;100844.78;6093985;23;20040;-80
2023/10/12 01:08:42;;;;;;;12.55;2.17;;;;;;;12.89;100.00;100863.38;6093326;23;20014;-77
2023/10/12 01:11:33;;;;;;;11.23;2.00;;;;;;;12.88;100.00;100864.44;6118680;23;20024;-77
2023/10/12 01:16:29;;;;;;;10.57;2.10;;;;;;;12.78;100.00;100863.44;6093666;23;20021;-77
2023/10/12 01:19:05;;;;;;;8.63;1.70;;;;;;;12.74;100.00;100870.47;6071316;23;20036;-78
2023/10/12 01:21:35;;;;;;;11.32;2.47;;;;;;;12.68;100.00;100863.53;6093368;23;20036;-79
2023/10/12 01:24:11;;;;;;;11.40;2.15;;;;;;;12.66;100.00;100872.94;6071202;23;20753;-80
2023/10/12 01:26:48;;;;;;;14.60;2.38;;;;;;;12.65;100.00;100868.63;6093968;23;20092;-76
2023/10/12 01:29:21;;;;;;;16.33;2.50;;;;;;;12.63;100.00;100873.50;6116951;23;20096;-78
2023/10/12 01:35:02;;;;;;;12.18;2.00;;;;;;;12.52;100.00;100867.38;6068247;23;20477;-78
2023/10/12 01:37:28;;;;;;;12.98;2.95;;;;;;;12.50;100.00;100873.03;6068294;23;20017;-79
2023/10/12 01:42:50;;;;;;;13.10;2.53;;;;;;;12.47;100.00;100878.19;6092385;23;20017;-77
2023/10/12 01:48:05;;;;;;;12.07;2.05;;;;;;;12.38;100.00;100874.47;6119102;23;20014;-78
2023/10/12 01:50:33;;;;;;;12.15;3.03;;;;;;;12.34;100.00;100863.50;6118695;23;20080;-78
2023/10/12 01:53:07;;;;;;;10.80;1.90;;;;;;;12.32;100.00;100870.19;6094419;23;20740;-79
2023/10/12 01:55:33;;;;;;;12.90;2.97;;;;;;;12.32;100.00;100880.94;6070336;23;20029;-80
2023/10/12 01:57:59;;;;;;;10.88;2.33;;;;;;;12.27;100.00;100885.28;6070622;23;20720;-78
2023/10/12 02:00:27;;;;;;;13.32;2.63;;;;;;;12.24;100.00;100893.88;6117710;23;20068;-77
2023/10/12 02:03:02;;;;;;;11.77;2.22;;;;;;;12.17;100.00;100896.06;6070918;23;20017;-78
2023/10/12 02:05:33;;;;;;;10.88;2.15;;;;;;;12.17;100.00;100896.06;6070851;23;20490;-80
2023/10/12 02:08:05;;;;;;;10.25;2.13;;;;;;;12.17;100.00;100898.75;6071072;23;20022;-78
2023/10/12 02:10:41;;;;;;;11.10;2.22;;;;;;;12.16;100.00;100899.03;6094220;23;20009;-78
2023/10/12 02:13:10;;;;;;;7.65;1.73;;;;;;;12.16;100.00;100894.47;6093653;23;20096;-78
2023/10/12 02:15:38;;;;;;;10.38;2.17;;;;;;;12.17;100.00;100909.47;6118776;23;20470;-78
2023/10/12 02:18:11;;;;;;;8.38;1.83;;;;;;;12.16;100.00;100905.19;6070950;23;20021;-79
2023/10/12 02:20:42;;;;;;;16.02;2.28;;;;;;;12.14;100.00;100902.00;6070061;23;20017;-79
2023/10/12 02:23:12;;;;;;;9.25;2.20;;;;;;;12.15;100.00;100906.28;6097262;23;20057;-79
2023/10/12 02:25:50;;;;;;;9.05;2.08;;;;;;;12.15;100.00;100914.34;6119650;23;20104;-78
2023/10/12 02:28:22;;;;;;;10.00;1.80;;;;;;;12.12;100.00;100904.13;6096418;23;20022;-79
2023/10/12 02:30:52;;;;;;;6.35;1.65;;;;;;;12.11;100.00;100912.47;6096788;23;20013;-79
2023/10/12 02:33:23;;;;;;;7.38;1.83;;;;;;;12.09;100.00;100904.69;6097811;23;20017;-79
2023/10/12 02:35:49;;;;;;;6.82;1.52;;;;;;;12.06;100.00;100915.16;6072869;23;20383;-78
2023/10/12 02:38:15;;;;;;;8.77;1.67;;;;;;;12.05;100.00;100914.34;6122296;23;20483;-80
2023/10/12 02:40:43;;;;;;;;;;;;;;;12.04;100.00;100918.13;6122646;23;20025;-80
2023/10/12 02:43:10;;;;;;;7.25;2.25;;;;;;;12.01;100.00;100916.81;6073968;23;19951;-80
2023/10/12 02:45:41;;;;;;;11.60;2.20;;;;;;;12.01;100.00;100913.31;6096296;23;20068;-81
2023/10/12 02:48:13;;;;;;;8.13;1.92;;;;;;;11.97;100.00;100917.63;6073745;23;20018;-83
2023/10/12 02:50:57;;;;;;;8.13;1.73;;;;;;;11.96;100.00;100924.06;6121947;23;20085;-83
2023/10/12 02:53:34;;;;;;;10.57;1.73;;;;;;;11.92;100.00;100929.19;6099207;23;20037;-82
2023/10/12 02:56:04;;;;;;;6.28;1.40;;;;;;;11.91;100.00;100924.09;6075167;23;20017;-82
2023/10/12 02:58:32;;;;;;;9.93;2.13;;;;;;;11.88;100.00;100932.69;6097822;23;20005;-82
2023/10/12 03:03:54;;;;;;;4.57;1.63;;;;;;;11.87;100.00;100936.47;6121024;23;20780;-81
2023/10/12 03:06:31;;;;;;;8.68;1.80;;;;;;;11.84;100.00;100934.31;6122238;23;20068;-83
2023/10/12 03:11:34;;;;;;;6.30;1.77;;;;;;;11.81;100.00;100945.59;6072907;23;20017;-81
2023/10/12 03:14:00;;;;;;;8.63;1.55;;;;;;;11.80;100.00;100943.97;6092555;23;20024;-82
2023/10/12 03:16:33;;;;;;;;;;;;;;;11.77;100.00;100948.78;6074810;23;20013;-82
2023/10/12 03:19:00;;;;;;;6.65;1.33;;;;;;;11.76;100.00;100944.50;6074223;23;19919;-82
2023/10/12 03:21:27;;;;;;;8.48;1.42;;;;;;;11.73;100.00;100942.38;6098651;23;20017;-82
2023/10/12 03:23:56;;;;;;;7.95;1.40;;;;;;;11.71;100.00;100947.19;6074808;23;20017;-82
2023/10/12 03:26:25;;;;;;;10.32;1.65;;;;;;;11.69;100.00;100949.34;6098695;23;20017;-83
2023/10/12 03:29:43;;;;;;;9.02;1.40;;;;;;;11.72;100.00;100951.50;6074434;23;20022;-82
2023/10/12 03:37:04;;;;;;;;;;;;;;;11.67;100.00;100946.13;6123295;23;19993;-82
2023/10/12 03:39:42;;;;;;;6.28;1.45;;;;;;;11.66;100.00;100949.09;6098924;23;19936;-82
2023/10/12 03:42:13;;;;;;;6.95;1.50;;;;;;;11.62;100.00;100937.28;6098088;23;20005;-82
2023/10/12 03:47:29;;;;;;;5.72;1.30;;;;;;;11.61;100.00;100935.69;6097638;23;20021;-82
2023/10/12 03:49:58;;;;;;;7.88;1.50;;;;;;;11.57;100.00;100948.81;6098636;23;20009;-82
2023/10/12 03:52:51;;;;;;;5.15;1.02;;;;;;;11.58;100.00;100942.38;6098708;23;20021;-82
2023/10/12 03:55:27;;;;;;;8.57;1.50;;;;;;;11.58;100.00;100950.41;6073733;23;20017;-82
2023/10/12 03:58:00;;;;;;;17.35;1.83;;;;;;;11.56;100.00;100951.78;6097380;23;20041;-83
2023/10/12 04:00:34;;;;;;;7.05;1.55;;;;;;;11.54;100.00;100952.06;6096174;23;20014;-82
2023/10/12 04:03:11;;;;;;;6.22;1.40;;;;;;;11.53;100.00;100953.13;6097735;23;20017;-81
2023/10/12 04:05:55;;;;;;;4.40;1.63;;;;;;;11.52;100.00;100954.22;6094873;23;20020;-81
2023/10/12 04:11:24;;;;;;;5.55;1.50;;;;;;;11.49;100.00;100962.78;6094316;23;20013;-83
2023/10/12 04:19:01;;;;;;;5.95;1.77;;;;;;;11.45;100.00;100953.69;6095329;23;20100;-81
2023/10/12 04:21:33;;;;;;;4.40;1.27;;;;;;;11.43;100.00;100955.81;6095275;23;20024;-81
2023/10/12 04:26:44;;;;;;;11.95;1.92;;;;;;;11.40;100.00;100972.44;6121180;23;20092;-81
2023/10/12 04:29:13;;;;;;;9.02;1.30;;;;;;;11.40;100.00;100967.09;6073231;23;20017;-81
2023/10/12 04:34:08;;;;;;;9.98;1.70;;;;;;;11.36;100.00;100982.09;6121908;23;20021;-82
2023/10/12 04:36:45;;;;;;;9.20;1.20;;;;;;;11.34;100.00;100981.56;6121659;23;20010;-81
2023/10/12 04:46:51;;;;;;;9.45;1.90;;;;;;;11.29;100.00;101003.81;6121560;23;20014;-82
2023/10/12 04:52:26;;;;;;;8.80;1.60;;;;;;;11.25;100.00;101015.38;6120888;23;20017;-82
2023/10/12 04:58:32;;;;;;;5.75;1.13;;;;;;;11.23;100.00;101014.81;6149060;23;20010;-82
2023/10/12 05:00:55;;;;;;;9.07;1.48;;;;;;;11.20;100.00;101024.19;6116591;23;20017;-83
2023/10/12 05:03:36;;;;;;;7.30;1.67;;;;;;;11.19;100.00;101026.06;6122837;23;20049;-82
2023/10/12 05:06:04;;;;;;;7.20;1.63;;;;;;;11.16;100.00;101026.59;6096423;23;20067;-80
2023/10/12 05:08:33;;;;;;;6.93;1.40;;;;;;;11.17;100.00;101024.72;6097763;23;20396;-82
2023/10/12 05:10:59;;;;;;;7.68;1.40;;;;;;;11.18;100.00;101035.19;6121805;23;20017;-82
2023/10/12 05:13:28;;;;;;;7.47;1.70;;;;;;;11.19;100.00;101042.16;6097080;23;20071;-82
2023/10/12 05:16:04;;;;;;;4.78;1.30;;;;;;;11.21;100.00;101039.19;6097004;23;20021;-80
2023/10/12 05:18:31;;;;;;;7.10;1.40;;;;;;;11.22;100.00;101043.50;6072509;23;20017;-83
2023/10/12 05:20:59;;;;;;;6.30;1.25;;;;;;;11.22;100.00;101038.13;6073196;23;20017;-82
2023/10/12 05:23:24;;;;;;;5.43;1.63;;;;;;;11.23;100.00;101052.34;6073222;23;20021;-82
2023/10/12 05:28:35;;;;;;;6.30;1.33;;;;;;;11.24;100.00;101051.25;6122061;23;20041;-81
2023/10/12 05:36:09;;;;;;;6.10;1.45;;;;;;;11.27;100.00;101070.31;6096406;23;20017;-81
2023/10/12 05:38:49;;;;;;;11.90;1.50;;;;;;;11.31;100.00;101057.16;6120596;23;20021;-81
2023/10/12 05:45:17;;;;;;;10.15;1.83;;;;;;;11.29;100.00;101064.69;6145352;23;20084;-82
2023/10/12 05:47:59;;;;;;;10.85;1.50;;;;;;;11.33;100.00;101073.81;6116881;23;20021;-82
2023/10/12 05:50:26;;;;;;;;;;;;;;;11.37;100.00;101088.28;6072139;23;20045;-81
2023/10/12 05:53:34;;;;;;;9.40;1.40;;;;;;;11.35;100.00;101098.47;6123790;23;19913;-78
2023/10/12 05:56:00;;;;;;;9.82;1.85;;;;;;;11.36;100.00;101094.72;6070656;23;20372;-81
2023/10/12 05:59:01;;;;;;;7.85;1.73;;;;;;;11.38;100.00;101101.44;6072475;23;20013;-82
2023/10/12 06:02:08;;;;;;;5.75;1.55;;;;;;;11.38;100.00;101093.41;6118003;23;20013;-83
2023/10/12 06:04:34;;;;;;;6.07;1.60;;;;;;;11.41;100.00;101108.94;6096317;23;20089;-83
2023/10/12 06:06:59;;;;;;;4.85;1.42;;;;;;;11.41;100.00;101108.94;6071139;23;20052;-83
2023/10/12 06:09:35;;;;;;;13.18;1.67;;;;;;;11.41;100.00;101114.31;6071602;23;20022;-83
2023/10/12 06:12:17;;;;;;;9.00;1.60;;;;;;;11.41;100.00;101116.19;6145599;23;20020;-82
2023/10/12 06:14:53;;;;;;;5.05;1.63;;;;;;;11.45;100.00;101130.69;6095810;23;20013;-79
2023/10/12 06:17:49;;;;;;;4.50;1.30;;;;;;;11.43;100.00;101127.44;6119034;23;20010;-78
2023/10/12 06:20:11;;;;;;;7.55;1.75;;;;;;;11.41;100.00;101124.22;6119270;23;20109;-78
2023/10/12 06:22:38;;;;;;;5.70;1.52;;;;;;;11.42;100.00;101125.84;6071560;23;20478;-80
2023/10/12 06:25:16;;;;;;;10.23;1.90;;;;;;;11.40;100.00;101136.03;6068366;23;20017;-78
2023/10/12 06:27:44;;;;;;;8.27;1.55;;;;;;;11.36;100.00;101138.44;6093958;23;20013;-80
2023/10/12 06:30:23;;;;;;;6.97;1.98;;;;;;;11.39;100.00;101145.97;6094151;23;20296;-80
2023/10/12 06:32:49;;;;;;;7.00;1.50;;;;;;;11.40;100.00;101160.16;6119514;23;20009;-80
2023/10/12 06:35:26;;;;;;;6.10;1.73;;;;;;;11.41;100.00;101159.09;6144922;23;20013;-80
2023/10/12 06:45:51;;;;;;;8.05;2.22;;;;;;;11.40;100.00;101190.47;6085696;23;20079;-81
2023/10/12 06:48:40;;;;;;;5.70;1.50;;;;;;;11.42;100.00;101184.84;6120962;23;20360;-81
2023/10/12 06:51:09;;;;;;;5.35;1.40;;;;;;;11.47;100.00;101192.91;6095830;23;20017;-79
2023/10/12 06:53:38;;;;;;;10.10;2.00;;;;;;;11.48;100.00;101189.94;6094307;23;20467;-80
2023/10/12 06:59:07;;;;;;;6.65;1.90;;;;;;;11.52;100.00;101190.25;6120007;23;20347;-79
2023/10/12 07:01:38;;;;;;;10.98;1.77;;;;;;;11.52;100.00;101200.97;6070827;23;20171;-79
2023/10/12 07:04:12;;;;;;;8.35;1.63;;;;;;;11.55;100.00;101205.78;6071375;23;20052;-80
2023/10/12 07:06:56;;;;;;;9.23;1.75;;;;;;;11.56;100.00;101202.03;6071564;23;20486;-79
2023/10/12 07:09:42;;;;;;;13.52;1.85;;;;;;;11.57;100.00;101203.66;6147558;23;20132;-80
2023/10/12 07:12:20;;;;;;;9.70;1.70;;;;;;;11.59;100.00;101212.25;6098897;23;20021;-81
2023/10/12 07:14:47;;;;;;;9.55;2.42;;;;;;;11.57;100.00;101198.28;6072731;23;20017;-80
2023/10/12 07:17:16;;;;;;;;;;;;;;;11.61;100.00;101210.09;6097285;23;20053;-79
2023/10/12 07:19:53;;;;;;;5.95;1.75;;;;;;;11.64;100.00;101225.66;6071069;23;19912;-80
2023/10/12 07:22:20;;;;;;;5.32;1.60;;;;;;;11.68;100.00;101236.69;6072796;23;20020;-80
2023/10/12 07:24:46;;;;;;;9.00;1.98;;;;;;;11.68;100.00;101232.13;6121635;23;20021;-80
2023/10/12 07:27:13;;;;;;;8.02;1.73;;;;;;;11.70;100.00;101234.53;6098921;23;20507;-82
2023/10/12 07:33:04;;;;;;;7.40;1.35;;;;;;;11.70;100.00;101246.06;6029365;23;20037;-83
2023/10/12 07:35:42;;;;;;;8.02;1.83;;;;;;;11.68;100.00;101242.84;6141159;23;20020;-83
2023/10/12 07:38:13;;;;;;;4.68;1.40;;;;;;;11.72;100.00;101243.94;6074522;23;20380;-82
2023/10/12 07:40:52;;;;;;;5.32;1.35;;;;;;;11.73;100.00;101236.69;6097932;23;20458;-82
2023/10/12 07:43:18;;;;;;;6.85;1.75;;;;;;;11.76;100.00;101244.22;6098401;23;20091;-83
2023/10/12 07:45:54;;;;;;;;;;;;;;;11.79;100.00;101243.69;6096079;23;20120;-84
2023/10/12 07:51:16;;;;;;;6.72;1.52;;;;;;;11.83;100.00;101241.31;6121108;23;20021;-81
2023/10/12 07:53:51;;;;;;;5.30;1.30;;;;;;;11.88;100.00;101242.13;6097879;23;20009;-81
2023/10/12 07:56:18;;;;;;;9.35;1.80;;;;;;;11.91;100.00;101240.78;6097323;23;20100;-81
2023/10/12 07:58:57;;;;;;;4.47;1.48;;;;;;;11.96;100.00;101249.66;6072211;23;20009;-81
2023/10/12 08:03:58;;;;;;;7.18;1.88;;;;;;;12.15;100.00;101236.50;6097319;23;20051;-81
2023/10/12 08:09:05;;;;;;;9.80;2.13;;;;;;;12.33;100.00;101248.63;6120889;23;20025;-81
2023/10/12 08:11:34;;;;;;;6.57;1.40;;;;;;;12.38;100.00;101256.66;6097283;23;20020;-81
2023/10/12 08:14:19;;;;;;;9.90;1.80;;;;;;;12.46;100.00;101260.69;6096754;23;20105;-81
2023/10/12 08:17:24;;;;;;;6.85;1.35;;;;;;;12.48;100.00;101266.59;6121616;23;20336;-81
2023/10/12 08:19:39;;;;;;;5.40;1.63;;;;;;;12.50;100.00;101269.81;6121655;23;20463;-81
2023/10/12 08:22:14;;;;;;;7.43;1.95;;;;;;;12.54;100.00;101273.59;6072528;23;20021;-81
2023/10/12 08:24:40;;;;;;;8.23;1.88;;;;;;;12.56;100.00;101279.50;6095640;23;20401;-80
2023/10/12 08:27:06;;;;;;;;;;;;;;;12.52;100.00;101281.91;6120034;23;20044;-80
2023/10/12 08:44:52;;;;;;;9.63;1.90;;;;;;;12.96;100.00;101292.09;6112542;23;20021;-81
2023/10/12 08:52:50;;;;;;;8.18;1.73;;;;;;;13.23;100.00;101305.22;6121134;23;20739;-81
2023/10/12 08:55:25;;;;;;;9.70;1.75;;;;;;;13.28;100.00;101307.09;6095896;23;20017;-81
2023/10/12 08:58:20;;;;;;;7.50;1.92;;;;;;;13.27;100.00;101306.28;6120679;23;20515;-82
2023/10/12 09:06:52;;;;;;;8.73;1.58;;;;;;;13.35;100.00;101304.94;6103542;23;20116;-81
2023/10/12 09:09:48;;;;;;;6.88;1.83;;;;;;;13.39;100.00;101308.66;6120574;23;20017;-81
2023/10/12 09:12:03;;;;;;;12.73;2.30;;;;;;;13.41;100.00;101311.88;6095393;23;20174;-80
2023/10/12 09:14:32;;;;;;;8.73;1.98;;;;;;;13.45;100.00;101312.94;6095834;23;20028;-80
2023/10/12 09:17:03;;;;;;;10.85;2.08;;;;;;;13.48;100.00;101315.09;6120525;23;20096;-79
2023/10/12 09:19:29;;;;;;;7.93;2.10;;;;;;;13.44;100.00;101315.91;6120367;23;20014;-79
2023/10/12 09:22:03;;;;;;;8.70;1.67;;;;;;;13.49;100.00;101326.69;6069578;23;20024;-78
2023/10/12 09:24:36;;;;;;;9.43;1.63;;;;;;;13.49;100.00;101329.38;6093935;23;20025;-80
2023/10/12 09:27:11;;;;;;;9.85;2.20;;;;;;;13.49;100.00;101330.16;6094010;23;20017;-80
2023/10/12 09:29:57;;;;;;;9.05;1.60;;;;;;;13.52;100.00;101334.19;6145444;23;20082;-79
2023/10/12 09:32:25;;;;;;;8.82;1.60;;;;;;;13.55;100.00;101339.03;6093968;23;20694;-79
2023/10/12 09:37:43;;;;;;;8.02;1.63;;;;;;;13.58;100.00;101343.84;6095985;23;20021;-81
2023/10/12 09:40:27;;;;;;;10.30;2.00;;;;;;;13.60;100.00;101341.69;6095417;23;20016;-79
2023/10/12 09:42:56;;;;;;;6.38;1.35;;;;;;;13.68;100.00;101343.78;6071396;23;20328;-77
2023/10/12 09:45:24;;;;;;;11.13;1.50;;;;;;;13.66;100.00;101327.13;6095786;23;20071;-79
2023/10/12 09:47:57;;;;;;;4.95;1.38;;;;;;;13.73;100.00;101341.09;6121856;23;20021;-79
2023/10/12 09:50:27;;;;;;;7.03;1.60;;;;;;;13.80;100.00;101340.78;6121064;23;20021;-80
2023/10/12 09:52:57;;;;;;;6.50;1.30;;;;;;;13.80;100.00;101352.38;6120973;23;20025;-80
2023/10/12 09:55:32;;;;;;;10.35;1.63;;;;;;;13.82;100.00;101338.66;6096618;23;20751;-81
2023/10/12 09:58:12;;;;;;;8.68;1.50;;;;;;;13.79;100.00;101342.69;6095987;23;20068;-81
2023/10/12 10:00:59;;;;;;;8.68;1.70;;;;;;;13.82;100.00;101350.22;6072502;23;20020;-82
2023/10/12 10:03:34;;;;;;;7.07;1.50;;;;;;;13.80;100.00;101348.88;6072872;23;20053;-80
2023/10/12 10:06:10;;;;;;;7.95;2.63;;;;;;;13.80;100.00;101346.97;6095351;23;20104;-80
2023/10/12 10:08:45;;;;;;;8.93;1.90;;;;;;;13.84;100.00;101347.25;6096745;23;20051;-80
2023/10/12 10:11:12;;;;;;;9.25;1.92;;;;;;;13.84;100.00;101352.63;6119760;23;20032;-80
2023/10/12 10:13:41;;;;;;;10.38;1.60;;;;;;;13.90;100.00;101355.03;6118600;23;20104;-78
2023/10/12 10:16:09;;;;;;;7.75;1.67;;;;;;;13.99;100.00;101349.06;6071802;23;20068;-81
2023/10/12 10:21:38;;;;;;;9.63;1.80;;;;;;;14.13;100.00;101350.06;6097371;23;20096;-81
2023/10/12 10:24:19;;;;;;;10.27;1.63;;;;;;;14.22;100.00;101356.44;6146545;23;20009;-82
2023/10/12 10:26:47;;;;;;;8.13;1.88;;;;;;;14.31;100.00;101357.50;6098443;23;20025;-79
2023/10/12 10:29:20;;;;;;;9.63;1.73;;;;;;;14.29;100.00;101358.84;6077583;23;20065;-84
2023/10/12 10:31:51;;;;;;;11.32;1.70;;;;;;;14.26;100.00;101354.81;6125617;23;20017;-84
2023/10/12 10:34:23;;;;;;;4.80;1.10;;;;;;;14.27;100.00;101361.81;6102073;23;20014;-84
2023/10/12 10:36:53;;;;;;;9.18;1.60;;;;;;;14.23;100.00;101360.78;6076928;23;20048;-83
2023/10/12 10:39:28;;;;;;;7.28;1.10;;;;;;;14.20;100.00;101359.44;6150703;23;20074;-83
2023/10/12 10:42:00;;;;;;;8.70;1.10;;;;;;;14.15;100.00;101348.69;6077449;23;20031;-84
2023/10/12 10:44:26;;;;;;;6.63;1.30;;;;;;;14.12;100.00;101343.06;6104652;23;20014;-84
2023/10/12 10:46:54;;;;;;;6.68;1.17;;;;;;;14.09;100.00;101332.81;6128383;23;20013;-82
2023/10/12 10:49:21;;;;;;;10.38;1.77;;;;;;;14.03;100.00;101339.34;6077685;23;20020;-83
2023/10/12 10:54:39;;;;;;;10.07;1.52;;;;;;;14.05;100.00;101347.94;6082175;23;20104;-86
2023/10/12 10:57:17;;;;;;;5.60;1.27;;;;;;;14.06;100.00;101341.47;6127309;23;20009;-86
2023/10/12 10:59:44;;;;;;;6.75;0.93;;;;;;;14.07;100.00;101340.38;6153272;23;20072;-85
2023/10/12 11:02:14;;;;;;;7.18;1.40;;;;;;;14.09;100.00;101340.91;6126087;23;20029;-83
2023/10/12 11:07:11;;;;;;;;;;;;;;;14.18;100.00;101341.94;6078793;23;20025;-83
2023/10/12 11:12:25;;;;;;;5.25;1.42;;;;;;;14.19;100.00;101332.78;6128046;23;20018;-84
2023/10/12 11:15:01;;;;;;;7.93;1.50;;;;;;;14.12;100.00;101322.31;6103326;23;20506;-86
2023/10/12 11:17:40;;;;;;;8.05;1.40;;;;;;;14.07;100.00;101338.50;6127707;23;20447;-84
2023/10/12 11:20:43;;;;;;;9.77;1.67;;;;;;;14.05;100.00;101329.09;6102377;23;20021;-83
2023/10/12 11:23:11;;;;;;;9.52;1.65;;;;;;;14.00;100.00;101327.22;6125552;23;20455;-82
2023/10/12 11:25:41;;;;;;;8.52;1.23;;;;;;;14.00;100.00;101339.88;6124555;23;20020;-80
2023/10/12 11:28:23;;;;;;;8.77;1.90;;;;;;;13.89;100.00;101329.19;6074273;23;20560;-81
2023/10/12 11:30:52;;;;;;;5.05;1.33;;;;;;;13.91;100.00;101332.41;6123339;23;20032;-83
2023/10/12 11:33:27;;;;;;;7.68;1.67;;;;;;;13.87;100.00;101336.72;6097877;23;20017;-81
2023/10/12 11:35:54;;;;;;;4.13;1.17;;;;;;;13.86;100.00;101340.50;6096925;23;20025;-83
2023/10/12 11:38:23;;;;;;;5.72;0.93;;;;;;;13.81;100.00;101335.13;6124550;23;20384;-81
2023/10/12 11:40:58;;;;;;;6.15;1.38;;;;;;;13.77;100.00;101342.16;6124892;23;20024;-82
2023/10/12 11:43:45;;;;;;;6.20;1.40;;;;;;;13.79;100.00;101329.22;6151579;23;20021;-84
2023/10/12 11:46:14;;;;;;;5.47;1.15;;;;;;;13.79;100.00;101333.81;6126361;23;20415;-83
2023/10/12 11:48:40;;;;;;;5.35;1.42;;;;;;;13.78;100.00;101335.69;6101499;23;20514;-84
2023/10/12 11:51:12;;;;;;;;;;;;;;;13.75;100.00;101341.66;6102131;23;20544;-83
2023/10/12 11:53:40;;;;;;;4.63;0.77;;;;;;;13.83;100.00;101340.25;6078580;23;19924;-86
2023/10/12 11:56:17;;;;;;;5.45;1.23;;;;;;;13.85;100.00;101338.88;6101783;23;20013;-85
2023/10/12 11:58:55;;;;;;;5.50;1.08;;;;;;;13.82;100.00;101342.16;6122987;23;20019;-84
2023/10/12 12:01:33;;;;;;;6.65;1.00;;;;;;;13.84;100.00;101341.88;6077458;23;20490;-83
2023/10/12 12:04:02;;;;;;;7.55;1.20;;;;;;;13.81;100.00;101342.41;6080310;23;20014;-85
2023/10/12 12:06:32;;;;;;;7.05;1.00;;;;;;;13.79;100.00;101345.38;6103360;23;20021;-84
2023/10/12 12:08:59;;;;;;;7.45;0.93;;;;;;;13.76;100.00;101348.63;6079474;23;20144;-85
2023/10/12 12:11:31;;;;;;;5.65;1.10;;;;;;;13.74;100.00;101350.78;6078784;23;20021;-84
2023/10/12 12:13:57;;;;;;;9.40;1.60;;;;;;;13.86;100.00;101348.56;6078345;23;20021;-86
2023/10/12 12:16:23;;;;;;;7.28;1.48;;;;;;;13.96;100.00;101345.03;6102706;23;20017;-85
2023/10/12 12:18:52;;;;;;;;;;;;;;;14.11;100.00;101346.84;6079718;23;20084;-84
2023/10/12 12:21:31;;;;;;;10.00;1.73;;;;;;;14.18;100.00;101341.94;6100298;23;19916;-86
2023/10/12 12:24:21;;;;;;;4.55;0.88;;;;;;;14.32;100.00;101342.94;6103092;23;20036;-85
2023/10/12 12:26:49;;;;;;;;;;;;;;;14.34;100.00;101348.84;6128990;23;20017;-87
2023/10/12 12:29:16;;;;;;;6.53;1.20;;;;;;;14.54;100.00;101339.03;6128747;23;19919;-88
2023/10/12 12:31:42;;;;;;;8.55;1.33;;;;;;;14.59;100.00;101341.69;6105069;23;20022;-87
2023/10/12 12:34:08;;;;;;;;;;;;;;;14.66;100.00;101344.88;6102207;23;20604;-84
2023/10/12 12:36:35;;;;;;;6.22;1.13;;;;;;;14.73;100.00;101335.38;6100785;23;20327;-83
2023/10/12 12:39:01;;;;;;;7.32;1.30;;;;;;;14.82;100.00;101338.25;6077384;23;20010;-86
2023/10/12 12:41:29;;;;;;;6.53;1.20;;;;;;;14.89;100.00;101336.03;6103424;23;20016;-87
2023/10/12 12:43:58;;;;;;;6.93;1.10;;;;;;;14.96;100.00;101330.31;6080231;23;20021;-86
2023/10/12 12:46:25;;;;;;;8.55;1.20;;;;;;;15.07;100.00;101331.03;6104234;23;20112;-85
2023/10/12 12:48:52;;;;;;;6.18;1.30;;;;;;;15.15;100.00;101343.88;6079439;23;20021;-84
2023/10/12 12:51:21;;;;;;;10.23;1.65;;;;;;;15.12;100.00;101339.06;6101724;23;20028;-85
2023/10/12 12:53:50;;;;;;;7.00;1.20;;;;;;;15.13;100.00;101340.69;6076994;23;20360;-82
2023/10/12 12:56:18;;;;;;;6.20;1.10;;;;;;;15.20;100.00;101336.53;6126944;23;20104;-83
2023/10/12 12:58:49;;;;;;;5.82;1.40;;;;;;;15.26;100.00;101346.19;6128294;23;20013;-85
2023/10/12 13:01:17;;;;;;;6.82;1.40;;;;;;;15.38;100.00;101348.50;6150771;23;20348;-82
2023/10/12 13:03:43;;;;;;;8.85;1.35;;;;;;;15.46;100.00;101334.38;6124822;23;20396;-83
2023/10/12 13:06:09;;;;;;;9.52;1.55;;;;;;;15.46;100.00;101334.38;6098965;23;20084;-81
2023/10/12 13:08:35;;;;;;;;;;;;;;;15.62;100.00;101343.13;6101387;23;20455;-85
2023/10/12 13:11:04;;;;;;;7.88;1.63;;;;;;;15.54;100.00;101331.03;6099733;23;19915;-83
2023/10/12 13:13:33;;;;;;;8.25;1.45;;;;;;;15.64;100.00;101330.13;6076309;23;20025;-82
2023/10/12 13:16:06;;;;;;;5.82;1.30;;;;;;;15.69;100.00;101337.38;6101609;23;20151;-83
2023/10/12 13:18:32;;;;;;;7.15;1.17;;;;;;;15.54;100.00;101327.53;6150637;23;20025;-82
2023/10/12 13:20:59;;;;;;;5.22;1.25;;;;;;;15.47;100.00;101338.69;6071190;23;20020;-85
2023/10/12 13:23:25;;;;;;;5.68;1.40;;;;;;;15.35;100.00;101335.56;6100303;23;20466;-83
2023/10/12 13:25:51;;;;;;;4.95;0.80;;;;;;;15.32;100.00;101338.84;6125566;23;20097;-82
2023/10/12 13:28:17;;;;;;;;;;;;;;;15.23;100.00;101335.16;6077970;23;20505;-83
2023/10/12 13:30:43;;;;;;;3.75;0.77;;;;;;;15.25;100.00;101327.59;6125262;23;19983;-82
2023/10/12 13:33:11;;;;;;;6.07;1.20;;;;;;;15.31;100.00;101329.16;6075095;23;20017;-82
2023/10/12 13:38:11;;;;;;;6.43;1.25;;;;;;;15.20;100.00;101341.13;6096096;23;20073;-82
2023/10/12 13:40:46;;;;;;;4.03;1.27;;;;;;;15.15;100.00;101338.50;6096570;23;20016;-85
2023/10/12 13:43:15;;;;;;;5.10;1.58;;;;;;;15.12;100.00;101330.97;6074147;23;20018;-86
2023/10/12 13:45:48;;;;;;;8.05;1.45;;;;;;;15.16;100.00;101335.50;6121856;23;20013;-81
2023/10/12 13:48:17;;;;;;;10.23;2.10;;;;;;;15.12;100.00;101328.28;6095178;23;20017;-79
2023/10/12 13:50:46;;;;;;;8.95;1.42;;;;;;;15.08;100.00;101319.94;6094679;23;20329;-80
2023/10/12 13:53:15;;;;;;;5.90;1.90;;;;;;;15.08;100.00;101317.25;6120202;23;20402;-79
2023/10/12 13:55:45;;;;;;;7.47;1.10;;;;;;;15.14;100.00;101315.31;6096243;23;20092;-81
2023/10/12 13:58:11;;;;;;;5.68;1.38;;;;;;;15.06;100.00;101318.63;6120861;23;20013;-78
2023/10/12 14:00:37;;;;;;;6.15;1.30;;;;;;;14.90;100.00;101316.09;6120853;23;20451;-81